No particular awareness of the weather is required.    There are no Weather-warnings


Meteo18 Weather Cam more information Meteo18 Weather Cam


Thunder radar more information blitzortung!


Rain radar more information rain snow radar


Visit our other weather sites:

Template documentation
and downloads

And another site



Weather Underground History page Text

Daily Summary for November 28, 2017 Units:  Both    English   Metric
« Previous Day
Next Day »
Daily Weekly Monthly Yearly Custom
  High: Low: Average:
Temperature: 44.4 °F /  6.9 °C 39.7 °F /  4.3 °C 42.1 °F /  5.6 °C
Dew Point: 41.2 °F /  5.1 °C 38.1 °F /  3.4 °C 39.7 °F /  4.3 °C
Humidity: 96 % 80 % 92 %
Wind Speed: 17 mph /  27.4 km/h - 5.3 mph /  8.5 km/h
Wind Gust: 19 mph /  30.6 km/h - -
Wind:- - WSW
Pressure: 30.1 in /  1018.2 hPa 29.8 in /  1008.7 hPa -
Precipitation: 0.36 in /  9.1 mm    
Historical Graphs
 
 
Tabular Data for November 28, 2017
Time Temperature Dew Point Pressure Wind Wind Speed Wind Gust Humidity Rainfall Rate (Hourly)
00:02 43.9 °F /  6.6 °C 38.7 °F /  3.7 °C 30.1 in /  1018.2 hPa SW 7 mph /  11.3 km/h 16 mph /  25.7 km/h 82 % 0 in /  0.0 mm
00:12 43.9 °F /  6.6 °C 38.7 °F /  3.7 °C 30.1 in /  1018.2 hPa SW 10 mph /  16.1 km/h 17 mph /  27.4 km/h 82 % 0 in /  0.0 mm
00:17 43.9 °F /  6.6 °C 38.7 °F /  3.7 °C 30.1 in /  1018.2 hPa WSW 9 mph /  14.5 km/h 18 mph /  29.0 km/h 82 % 0 in /  0.0 mm
00:22 43.9 °F /  6.6 °C 38.7 °F /  3.7 °C 30.1 in /  1017.8 hPa SW 17 mph /  27.4 km/h 18 mph /  29.0 km/h 82 % 0 in /  0.0 mm
00:27 44.1 °F /  6.7 °C 38.8 °F /  3.8 °C 30.1 in /  1017.8 hPa SW 6 mph /  9.7 km/h 18 mph /  29.0 km/h 82 % 0 in /  0.0 mm
00:32 44.1 °F /  6.7 °C 38.8 °F /  3.8 °C 30.1 in /  1017.8 hPa WSW 13 mph /  20.9 km/h 18 mph /  29.0 km/h 82 % 0 in /  0.0 mm
00:37 44.1 °F /  6.7 °C 38.8 °F /  3.8 °C 30.1 in /  1017.8 hPa West 6 mph /  9.7 km/h 18 mph /  29.0 km/h 82 % 0 in /  0.0 mm
00:42 44.1 °F /  6.7 °C 38.8 °F /  3.8 °C 30.1 in /  1017.8 hPa SW 7 mph /  11.3 km/h 19 mph /  30.6 km/h 82 % 0 in /  0.0 mm
00:52 44.1 °F /  6.7 °C 38.8 °F /  3.8 °C 30.1 in /  1017.5 hPa SW 11 mph /  17.7 km/h 19 mph /  30.6 km/h 82 % 0 in /  0.0 mm
00:57 44.1 °F /  6.7 °C 38.8 °F /  3.8 °C 30.1 in /  1017.5 hPa WSW 8 mph /  12.9 km/h 17 mph /  27.4 km/h 82 % 0 in /  0.0 mm
01:02 44.1 °F /  6.7 °C 38.7 °F /  3.7 °C 30.1 in /  1017.5 hPa SW 6 mph /  9.7 km/h 17 mph /  27.4 km/h 81 % 0 in /  0.0 mm
01:12 44.2 °F /  6.8 °C 38.8 °F /  3.8 °C 30 in /  1017.2 hPa SW 9 mph /  14.5 km/h 16 mph /  25.7 km/h 81 % 0 in /  0.0 mm
01:17 44.2 °F /  6.8 °C 38.8 °F /  3.8 °C 30 in /  1017.2 hPa South 7 mph /  11.3 km/h 17 mph /  27.4 km/h 81 % 0 in /  0.0 mm
01:22 44.2 °F /  6.8 °C 38.8 °F /  3.8 °C 30 in /  1017.2 hPa WSW 11 mph /  17.7 km/h 17 mph /  27.4 km/h 81 % 0 in /  0.0 mm
01:32 44.4 °F /  6.9 °C 38.7 °F /  3.7 °C 30 in /  1017.2 hPa SW 8 mph /  12.9 km/h 17 mph /  27.4 km/h 80 % 0 in /  0.0 mm
01:37 44.2 °F /  6.8 °C 38.8 °F /  3.8 °C 30 in /  1017.2 hPa SSW 3 mph /  4.8 km/h 14 mph /  22.5 km/h 81 % 0 in /  0.0 mm
01:42 44.2 °F /  6.8 °C 38.8 °F /  3.8 °C 30 in /  1017.2 hPa SSW 9 mph /  14.5 km/h 14 mph /  22.5 km/h 81 % 0 in /  0.0 mm
01:47 44.2 °F /  6.8 °C 38.8 °F /  3.8 °C 30 in /  1016.8 hPa SSW 6 mph /  9.7 km/h 14 mph /  22.5 km/h 81 % 0 in /  0.0 mm
01:52 44.2 °F /  6.8 °C 38.8 °F /  3.8 °C 30 in /  1016.8 hPa WSW 7 mph /  11.3 km/h 14 mph /  22.5 km/h 81 % 0 in /  0.0 mm
02:02 44.2 °F /  6.8 °C 38.8 °F /  3.8 °C 30 in /  1016.8 hPa SW 8 mph /  12.9 km/h 14 mph /  22.5 km/h 81 % 0 in /  0.0 mm
02:12 44.1 °F /  6.7 °C 38.7 °F /  3.7 °C 30 in /  1016.5 hPa SW 11 mph /  17.7 km/h 13 mph /  20.9 km/h 81 % 0 in /  0.0 mm
02:17 44.1 °F /  6.7 °C 38.8 °F /  3.8 °C 30 in /  1016.5 hPa SW 5 mph /  8.0 km/h 14 mph /  22.5 km/h 82 % 0 in /  0.0 mm
02:22 43.9 °F /  6.6 °C 38.7 °F /  3.7 °C 30 in /  1016.5 hPa SW 12 mph /  19.3 km/h 14 mph /  22.5 km/h 82 % 0 in /  0.0 mm
02:27 43.9 °F /  6.6 °C 38.7 °F /  3.7 °C 30 in /  1016.5 hPa WSW 9 mph /  14.5 km/h 15 mph /  24.1 km/h 82 % 0 in /  0.0 mm
02:32 43.9 °F /  6.6 °C 38.7 °F /  3.7 °C 30 in /  1016.5 hPa SW 7 mph /  11.3 km/h 15 mph /  24.1 km/h 82 % 0 in /  0.0 mm
02:37 43.7 °F /  6.5 °C 38.8 °F /  3.8 °C 30 in /  1016.5 hPa SW 9 mph /  14.5 km/h 14 mph /  22.5 km/h 83 % 0 in /  0.0 mm
02:42 43.9 °F /  6.6 °C 39 °F /  3.9 °C 30 in /  1016.5 hPa SW 10 mph /  16.1 km/h 14 mph /  22.5 km/h 83 % 0 in /  0.0 mm
02:52 43.9 °F /  6.6 °C 38.7 °F /  3.7 °C 30 in /  1016.1 hPa SW 6 mph /  9.7 km/h 14 mph /  22.5 km/h 82 % 0 in /  0.0 mm
02:57 43.7 °F /  6.5 °C 38.8 °F /  3.8 °C 30 in /  1016.1 hPa SSW 7 mph /  11.3 km/h 14 mph /  22.5 km/h 83 % 0 in /  0.0 mm
03:02 43.5 °F /  6.4 °C 38.7 °F /  3.7 °C 30 in /  1016.1 hPa South 5 mph /  8.0 km/h 14 mph /  22.5 km/h 83 % 0 in /  0.0 mm
03:07 43.5 °F /  6.4 °C 38.7 °F /  3.7 °C 30 in /  1015.8 hPa SW 10 mph /  16.1 km/h 14 mph /  22.5 km/h 83 % 0 in /  0.0 mm
03:12 43.7 °F /  6.5 °C 38.8 °F /  3.8 °C 30 in /  1015.8 hPa SW 7 mph /  11.3 km/h 14 mph /  22.5 km/h 83 % 0 in /  0.0 mm
03:17 43.7 °F /  6.5 °C 38.8 °F /  3.8 °C 30 in /  1015.8 hPa SSW 9 mph /  14.5 km/h 14 mph /  22.5 km/h 83 % 0 in /  0.0 mm
03:22 43.5 °F /  6.4 °C 38.7 °F /  3.7 °C 30 in /  1015.8 hPa SW 12 mph /  19.3 km/h 14 mph /  22.5 km/h 83 % 0 in /  0.0 mm
03:27 43.7 °F /  6.5 °C 38.8 °F /  3.8 °C 30 in /  1015.5 hPa SSW 11 mph /  17.7 km/h 14 mph /  22.5 km/h 83 % 0 in /  0.0 mm
03:32 43.7 °F /  6.5 °C 38.8 °F /  3.8 °C 30 in /  1015.5 hPa SSW 8 mph /  12.9 km/h 14 mph /  22.5 km/h 83 % 0 in /  0.0 mm
03:37 43.7 °F /  6.5 °C 38.8 °F /  3.8 °C 30 in /  1015.5 hPa SW 10 mph /  16.1 km/h 13 mph /  20.9 km/h 83 % 0 in /  0.0 mm
03:42 43.7 °F /  6.5 °C 38.8 °F /  3.8 °C 30 in /  1015.5 hPa SW 12 mph /  19.3 km/h 13 mph /  20.9 km/h 83 % 0 in /  0.0 mm
03:52 44.1 °F /  6.7 °C 38.8 °F /  3.8 °C 30 in /  1015.5 hPa WSW 8 mph /  12.9 km/h 14 mph /  22.5 km/h 82 % 0 in /  0.0 mm
03:57 44.1 °F /  6.7 °C 38.8 °F /  3.8 °C 30 in /  1015.1 hPa SW 9 mph /  14.5 km/h 14 mph /  22.5 km/h 82 % 0 in /  0.0 mm
04:02 44.1 °F /  6.7 °C 39.2 °F /  4.0 °C 30 in /  1015.1 hPa SW 7 mph /  11.3 km/h 14 mph /  22.5 km/h 83 % 0 in /  0.0 mm
04:12 44.1 °F /  6.7 °C 39.6 °F /  4.2 °C 30 in /  1015.1 hPa WSW 2 mph /  3.2 km/h 14 mph /  22.5 km/h 84 % 0 in /  0.0 mm
04:17 43.9 °F /  6.6 °C 39.4 °F /  4.1 °C 30 in /  1015.1 hPa SW 8 mph /  12.9 km/h 14 mph /  22.5 km/h 84 % 0 in /  0.0 mm
04:22 43.7 °F /  6.5 °C 39.6 °F /  4.2 °C 30 in /  1015.1 hPa SW 10 mph /  16.1 km/h 14 mph /  22.5 km/h 85 % 0 in /  0.0 mm
04:27 43.5 °F /  6.4 °C 39.6 °F /  4.2 °C 30 in /  1015.1 hPa SW 10 mph /  16.1 km/h 15 mph /  24.1 km/h 86 % 0.01 in /  0.3 mm
04:32 43.5 °F /  6.4 °C 39.9 °F /  4.4 °C 30 in /  1014.8 hPa SW 7 mph /  11.3 km/h 15 mph /  24.1 km/h 87 % 0.01 in /  0.3 mm
04:37 43.3 °F /  6.3 °C 39.7 °F /  4.3 °C 30 in /  1014.8 hPa SW 8 mph /  12.9 km/h 15 mph /  24.1 km/h 87 % 0.02 in /  0.5 mm
04:47 43.2 °F /  6.2 °C 39.9 °F /  4.4 °C 30 in /  1014.4 hPa SSW 4 mph /  6.4 km/h 15 mph /  24.1 km/h 88 % 0.03 in /  0.8 mm
04:52 43 °F /  6.1 °C 39.9 °F /  4.4 °C 30 in /  1014.4 hPa SW 10 mph /  16.1 km/h 15 mph /  24.1 km/h 89 % 0.03 in /  0.8 mm
05:02 43 °F /  6.1 °C 39.9 °F /  4.4 °C 30 in /  1014.4 hPa SW 8 mph /  12.9 km/h 15 mph /  24.1 km/h 89 % 0.03 in /  0.8 mm
05:12 42.6 °F /  5.9 °C 39.9 °F /  4.4 °C 30 in /  1014.4 hPa WSW 12 mph /  19.3 km/h 18 mph /  29.0 km/h 90 % 0.04 in /  1.0 mm
05:17 42.6 °F /  5.9 °C 39.9 °F /  4.4 °C 30 in /  1014.4 hPa SW 11 mph /  17.7 km/h 16 mph /  25.7 km/h 90 % 0.04 in /  1.0 mm
05:22 42.4 °F /  5.8 °C 39.9 °F /  4.4 °C 29.9 in /  1014.1 hPa SW 9 mph /  14.5 km/h 16 mph /  25.7 km/h 91 % 0.04 in /  1.0 mm
05:27 42.4 °F /  5.8 °C 39.9 °F /  4.4 °C 29.9 in /  1014.1 hPa WSW 11 mph /  17.7 km/h 18 mph /  29.0 km/h 91 % 0.04 in /  1.0 mm
05:32 42.4 °F /  5.8 °C 39.9 °F /  4.4 °C 29.9 in /  1014.1 hPa SW 11 mph /  17.7 km/h 18 mph /  29.0 km/h 91 % 0.04 in /  1.0 mm
05:42 42.3 °F /  5.7 °C 40.1 °F /  4.5 °C 29.9 in /  1014.1 hPa SW 12 mph /  19.3 km/h 18 mph /  29.0 km/h 92 % 0.03 in /  0.8 mm
05:47 42.3 °F /  5.7 °C 40.1 °F /  4.5 °C 29.9 in /  1013.8 hPa SSW 6 mph /  9.7 km/h 16 mph /  25.7 km/h 92 % 0.02 in /  0.5 mm
05:52 42.3 °F /  5.7 °C 40.1 °F /  4.5 °C 29.9 in /  1014.1 hPa SSW 11 mph /  17.7 km/h 16 mph /  25.7 km/h 92 % 0.02 in /  0.5 mm
05:57 42.3 °F /  5.7 °C 40.5 °F /  4.7 °C 29.9 in /  1013.8 hPa SW 2 mph /  3.2 km/h 14 mph /  22.5 km/h 93 % 0.03 in /  0.8 mm
06:02 42.3 °F /  5.7 °C 40.5 °F /  4.7 °C 29.9 in /  1013.8 hPa SW 11 mph /  17.7 km/h 14 mph /  22.5 km/h 93 % 0.03 in /  0.8 mm
06:12 42.1 °F /  5.6 °C 40.5 °F /  4.7 °C 29.9 in /  1014.1 hPa WSW 10 mph /  16.1 km/h 15 mph /  24.1 km/h 94 % 0.03 in /  0.8 mm
06:17 42.1 °F /  5.6 °C 40.5 °F /  4.7 °C 29.9 in /  1014.1 hPa WSW 4 mph /  6.4 km/h 15 mph /  24.1 km/h 94 % 0.04 in /  1.0 mm
06:22 42.1 °F /  5.6 °C 40.5 °F /  4.7 °C 29.9 in /  1014.1 hPa SW 5 mph /  8.0 km/h 15 mph /  24.1 km/h 94 % 0.04 in /  1.0 mm
06:32 42.1 °F /  5.6 °C 40.5 °F /  4.7 °C 29.9 in /  1014.1 hPa South 2 mph /  3.2 km/h 14 mph /  22.5 km/h 94 % 0.05 in /  1.3 mm
06:37 41.9 °F /  5.5 °C 40.3 °F /  4.6 °C 29.9 in /  1014.1 hPa West 2 mph /  3.2 km/h 14 mph /  22.5 km/h 94 % 0.05 in /  1.3 mm
06:42 41.9 °F /  5.5 °C 40.3 °F /  4.6 °C 29.9 in /  1014.1 hPa WSW 5 mph /  8.0 km/h 12 mph /  19.3 km/h 94 % 0.06 in /  1.5 mm
06:52 41.9 °F /  5.5 °C 40.3 °F /  4.6 °C 29.9 in /  1014.1 hPa West 3 mph /  4.8 km/h 12 mph /  19.3 km/h 94 % 0.06 in /  1.5 mm
07:02 41.9 °F /  5.5 °C 40.3 °F /  4.6 °C 29.9 in /  1014.1 hPa West 7 mph /  11.3 km/h 9 mph /  14.5 km/h 94 % 0.07 in /  1.8 mm
07:12 41.7 °F /  5.4 °C 40.1 °F /  4.5 °C 29.9 in /  1013.8 hPa SW 6 mph /  9.7 km/h 11 mph /  17.7 km/h 94 % 0.07 in /  1.8 mm
07:17 41.7 °F /  5.4 °C 40.1 °F /  4.5 °C 29.9 in /  1013.8 hPa SW 4 mph /  6.4 km/h 10 mph /  16.1 km/h 94 % 0.06 in /  1.5 mm
07:22 41.7 °F /  5.4 °C 40.1 °F /  4.5 °C 29.9 in /  1013.8 hPa WSW 5 mph /  8.0 km/h 10 mph /  16.1 km/h 94 % 0.06 in /  1.5 mm
07:32 41.7 °F /  5.4 °C 40.1 °F /  4.5 °C 29.9 in /  1013.4 hPa WSW 9 mph /  14.5 km/h 10 mph /  16.1 km/h 94 % 0.06 in /  1.5 mm
07:37 41.7 °F /  5.4 °C 40.1 °F /  4.5 °C 29.9 in /  1013.4 hPa SW 1 mph /  1.6 km/h 11 mph /  17.7 km/h 94 % 0.05 in /  1.3 mm
07:42 41.7 °F /  5.4 °C 40.1 °F /  4.5 °C 29.9 in /  1013.4 hPa SW 6 mph /  9.7 km/h 11 mph /  17.7 km/h 94 % 0.05 in /  1.3 mm
07:52 41.5 °F /  5.3 °C 39.9 °F /  4.4 °C 29.9 in /  1013.4 hPa WSW 3 mph /  4.8 km/h 11 mph /  17.7 km/h 94 % 0.05 in /  1.3 mm
07:57 41.5 °F /  5.3 °C 39.9 °F /  4.4 °C 29.9 in /  1013.4 hPa SW 6 mph /  9.7 km/h 11 mph /  17.7 km/h 94 % 0.03 in /  0.8 mm
08:02 41.5 °F /  5.3 °C 39.9 °F /  4.4 °C 29.9 in /  1013.1 hPa WSW 4 mph /  6.4 km/h 11 mph /  17.7 km/h 94 % 0.03 in /  0.8 mm
08:12 41.5 °F /  5.3 °C 39.9 °F /  4.4 °C 29.9 in /  1013.1 hPa West 5 mph /  8.0 km/h 14 mph /  22.5 km/h 94 % 0.03 in /  0.8 mm
08:17 41.5 °F /  5.3 °C 39.9 °F /  4.4 °C 29.9 in /  1013.1 hPa West 6 mph /  9.7 km/h 15 mph /  24.1 km/h 94 % 0.03 in /  0.8 mm
08:22 41.5 °F /  5.3 °C 39.9 °F /  4.4 °C 29.9 in /  1013.1 hPa WSW 7 mph /  11.3 km/h 15 mph /  24.1 km/h 94 % 0.03 in /  0.8 mm
08:32 41.5 °F /  5.3 °C 39.9 °F /  4.4 °C 29.9 in /  1013.1 hPa SSW 7 mph /  11.3 km/h 12 mph /  19.3 km/h 94 % 0.04 in /  1.0 mm
08:42 41.5 °F /  5.3 °C 39.9 °F /  4.4 °C 29.9 in /  1013.1 hPa SW 10 mph /  16.1 km/h 13 mph /  20.9 km/h 94 % 0.03 in /  0.8 mm
08:52 41.7 °F /  5.4 °C 40.1 °F /  4.5 °C 29.9 in /  1013.1 hPa WSW 5 mph /  8.0 km/h 14 mph /  22.5 km/h 94 % 0.03 in /  0.8 mm
08:57 41.5 °F /  5.3 °C 39.9 °F /  4.4 °C 29.9 in /  1013.1 hPa WSW 5 mph /  8.0 km/h 14 mph /  22.5 km/h 94 % 0.04 in /  1.0 mm
09:02 41.7 °F /  5.4 °C 40.5 °F /  4.7 °C 29.9 in /  1013.1 hPa SW 4 mph /  6.4 km/h 14 mph /  22.5 km/h 95 % 0.04 in /  1.0 mm
09:07 41.7 °F /  5.4 °C 40.5 °F /  4.7 °C 29.9 in /  1013.1 hPa SW 7 mph /  11.3 km/h 11 mph /  17.7 km/h 95 % 0.04 in /  1.0 mm
09:12 41.7 °F /  5.4 °C 40.1 °F /  4.5 °C 29.9 in /  1013.1 hPa SW 5 mph /  8.0 km/h 11 mph /  17.7 km/h 94 % 0.04 in /  1.0 mm
09:17 41.7 °F /  5.4 °C 40.1 °F /  4.5 °C 29.9 in /  1012.8 hPa WSW 11 mph /  17.7 km/h 13 mph /  20.9 km/h 94 % 0.03 in /  0.8 mm
09:22 41.7 °F /  5.4 °C 40.1 °F /  4.5 °C 29.9 in /  1012.8 hPa SW 8 mph /  12.9 km/h 13 mph /  20.9 km/h 94 % 0.03 in /  0.8 mm
09:32 41.7 °F /  5.4 °C 40.1 °F /  4.5 °C 29.9 in /  1012.8 hPa WSW 7 mph /  11.3 km/h 15 mph /  24.1 km/h 94 % 0.03 in /  0.8 mm
09:37 41.7 °F /  5.4 °C 40.1 °F /  4.5 °C 29.9 in /  1012.8 hPa SW 7 mph /  11.3 km/h 13 mph /  20.9 km/h 94 % 0.03 in /  0.8 mm
09:42 41.7 °F /  5.4 °C 40.1 °F /  4.5 °C 29.9 in /  1012.8 hPa WSW 4 mph /  6.4 km/h 13 mph /  20.9 km/h 94 % 0.03 in /  0.8 mm
09:47 41.7 °F /  5.4 °C 40.1 °F /  4.5 °C 29.9 in /  1012.8 hPa SW 10 mph /  16.1 km/h 16 mph /  25.7 km/h 94 % 0.04 in /  1.0 mm
09:52 41.7 °F /  5.4 °C 40.1 °F /  4.5 °C 29.9 in /  1012.8 hPa West 9 mph /  14.5 km/h 16 mph /  25.7 km/h 94 % 0.04 in /  1.0 mm
09:57 41.7 °F /  5.4 °C 40.1 °F /  4.5 °C 29.9 in /  1012.8 hPa WSW 6 mph /  9.7 km/h 16 mph /  25.7 km/h 94 % 0.03 in /  0.8 mm
10:02 41.7 °F /  5.4 °C 40.1 °F /  4.5 °C 29.9 in /  1012.8 hPa WSW 15 mph /  24.1 km/h 16 mph /  25.7 km/h 94 % 0.03 in /  0.8 mm
10:07 41.7 °F /  5.4 °C 40.1 °F /  4.5 °C 29.9 in /  1012.8 hPa WSW 8 mph /  12.9 km/h 16 mph /  25.7 km/h 94 % 0.03 in /  0.8 mm
10:12 41.7 °F /  5.4 °C 40.1 °F /  4.5 °C 29.9 in /  1012.4 hPa SW 3 mph /  4.8 km/h 16 mph /  25.7 km/h 94 % 0.03 in /  0.8 mm
10:17 41.7 °F /  5.4 °C 40.1 °F /  4.5 °C 29.9 in /  1012.4 hPa WSW 6 mph /  9.7 km/h 15 mph /  24.1 km/h 94 % 0.04 in /  1.0 mm
10:22 41.7 °F /  5.4 °C 40.1 °F /  4.5 °C 29.9 in /  1012.4 hPa SW 5 mph /  8.0 km/h 15 mph /  24.1 km/h 94 % 0.04 in /  1.0 mm
10:32 41.7 °F /  5.4 °C 40.1 °F /  4.5 °C 29.9 in /  1012.4 hPa WSW 7 mph /  11.3 km/h 15 mph /  24.1 km/h 94 % 0.03 in /  0.8 mm
10:42 41.7 °F /  5.4 °C 40.1 °F /  4.5 °C 29.9 in /  1012.4 hPa WSW 12 mph /  19.3 km/h 15 mph /  24.1 km/h 94 % 0.03 in /  0.8 mm
10:47 41.7 °F /  5.4 °C 40.1 °F /  4.5 °C 29.9 in /  1012.4 hPa WSW 5 mph /  8.0 km/h 13 mph /  20.9 km/h 94 % 0.03 in /  0.8 mm
10:52 41.5 °F /  5.3 °C 39.9 °F /  4.4 °C 29.9 in /  1012.4 hPa SW 6 mph /  9.7 km/h 13 mph /  20.9 km/h 94 % 0.03 in /  0.8 mm
10:57 41.5 °F /  5.3 °C 39.9 °F /  4.4 °C 29.9 in /  1012.4 hPa WSW 9 mph /  14.5 km/h 17 mph /  27.4 km/h 94 % 0.04 in /  1.0 mm
11:02 41.5 °F /  5.3 °C 39.9 °F /  4.4 °C 29.9 in /  1012.4 hPa SW 1 mph /  1.6 km/h 17 mph /  27.4 km/h 94 % 0.04 in /  1.0 mm
11:12 41.5 °F /  5.3 °C 39.9 °F /  4.4 °C 29.9 in /  1012.4 hPa WSW 8 mph /  12.9 km/h 14 mph /  22.5 km/h 94 % 0.03 in /  0.8 mm
11:17 41.5 °F /  5.3 °C 39.9 °F /  4.4 °C 29.9 in /  1012.1 hPa SW 10 mph /  16.1 km/h 15 mph /  24.1 km/h 94 % 0.03 in /  0.8 mm
11:22 41.5 °F /  5.3 °C 39.9 °F /  4.4 °C 29.9 in /  1012.1 hPa SSW 5 mph /  8.0 km/h 15 mph /  24.1 km/h 94 % 0.03 in /  0.8 mm
11:27 41.5 °F /  5.3 °C 39.9 °F /  4.4 °C 29.9 in /  1012.1 hPa WSW 5 mph /  8.0 km/h 17 mph /  27.4 km/h 94 % 0.03 in /  0.8 mm
11:32 41.5 °F /  5.3 °C 39.9 °F /  4.4 °C 29.9 in /  1012.1 hPa WSW 6 mph /  9.7 km/h 17 mph /  27.4 km/h 94 % 0.03 in /  0.8 mm
11:37 41.5 °F /  5.3 °C 39.9 °F /  4.4 °C 29.9 in /  1012.1 hPa WSW 9 mph /  14.5 km/h 15 mph /  24.1 km/h 94 % 0.04 in /  1.0 mm
11:42 41.4 °F /  5.2 °C 39.7 °F /  4.3 °C 29.9 in /  1011.7 hPa WSW 6 mph /  9.7 km/h 15 mph /  24.1 km/h 94 % 0.04 in /  1.0 mm
11:52 41.4 °F /  5.2 °C 40.1 °F /  4.5 °C 29.9 in /  1011.7 hPa WSW 5 mph /  8.0 km/h 13 mph /  20.9 km/h 95 % 0.03 in /  0.8 mm
11:57 41.4 °F /  5.2 °C 40.1 °F /  4.5 °C 29.9 in /  1011.7 hPa WSW 9 mph /  14.5 km/h 13 mph /  20.9 km/h 95 % 0.03 in /  0.8 mm
12:02 41.4 °F /  5.2 °C 40.1 °F /  4.5 °C 29.9 in /  1011.7 hPa West 4 mph /  6.4 km/h 13 mph /  20.9 km/h 95 % 0.03 in /  0.8 mm
12:12 41.4 °F /  5.2 °C 40.1 °F /  4.5 °C 29.9 in /  1011.7 hPa WSW 8 mph /  12.9 km/h 13 mph /  20.9 km/h 95 % 0.03 in /  0.8 mm
12:17 41.5 °F /  5.3 °C 40.3 °F /  4.6 °C 29.9 in /  1011.4 hPa WSW 3 mph /  4.8 km/h 12 mph /  19.3 km/h 95 % 0.03 in /  0.8 mm
12:22 41.5 °F /  5.3 °C 40.3 °F /  4.6 °C 29.9 in /  1011.4 hPa West 3 mph /  4.8 km/h 12 mph /  19.3 km/h 95 % 0.03 in /  0.8 mm
12:32 41.4 °F /  5.2 °C 40.1 °F /  4.5 °C 29.9 in /  1011.4 hPa WSW 9 mph /  14.5 km/h 12 mph /  19.3 km/h 95 % 0.04 in /  1.0 mm
12:37 41.5 °F /  5.3 °C 40.3 °F /  4.6 °C 29.9 in /  1011.4 hPa WSW 5 mph /  8.0 km/h 14 mph /  22.5 km/h 95 % 0.04 in /  1.0 mm
12:42 41.5 °F /  5.3 °C 40.3 °F /  4.6 °C 29.9 in /  1011.1 hPa SW 2 mph /  3.2 km/h 14 mph /  22.5 km/h 95 % 0.04 in /  1.0 mm
12:47 41.5 °F /  5.3 °C 40.3 °F /  4.6 °C 29.9 in /  1011.1 hPa SW 5 mph /  8.0 km/h 12 mph /  19.3 km/h 95 % 0.05 in /  1.3 mm
12:52 41.5 °F /  5.3 °C 40.3 °F /  4.6 °C 29.9 in /  1011.1 hPa West 4 mph /  6.4 km/h 12 mph /  19.3 km/h 95 % 0.05 in /  1.3 mm
12:57 41.5 °F /  5.3 °C 40.3 °F /  4.6 °C 29.9 in /  1011.1 hPa WSW 3 mph /  4.8 km/h 12 mph /  19.3 km/h 95 % 0.05 in /  1.3 mm
13:02 41.5 °F /  5.3 °C 40.3 °F /  4.6 °C 29.9 in /  1011.1 hPa WSW 3 mph /  4.8 km/h 10 mph /  16.1 km/h 95 % 0.04 in /  1.0 mm
13:12 41.5 °F /  5.3 °C 40.3 °F /  4.6 °C 29.8 in /  1010.7 hPa WSW 3 mph /  4.8 km/h 10 mph /  16.1 km/h 95 % 0.04 in /  1.0 mm
13:17 41.5 °F /  5.3 °C 40.3 °F /  4.6 °C 29.8 in /  1010.7 hPa SW 3 mph /  4.8 km/h 9 mph /  14.5 km/h 95 % 0.03 in /  0.8 mm
13:22 41.5 °F /  5.3 °C 40.3 °F /  4.6 °C 29.8 in /  1010.7 hPa West 3 mph /  4.8 km/h 9 mph /  14.5 km/h 95 % 0.03 in /  0.8 mm
13:32 41.7 °F /  5.4 °C 40.5 °F /  4.7 °C 29.8 in /  1010.4 hPa WSW 2 mph /  3.2 km/h 8 mph /  12.9 km/h 95 % 0.02 in /  0.5 mm
13:37 41.7 °F /  5.4 °C 40.5 °F /  4.7 °C 29.8 in /  1010.4 hPa WSW 4 mph /  6.4 km/h 8 mph /  12.9 km/h 95 % 0.02 in /  0.5 mm
13:42 41.7 °F /  5.4 °C 40.5 °F /  4.7 °C 29.8 in /  1010.4 hPa SW 2 mph /  3.2 km/h 8 mph /  12.9 km/h 95 % 0.02 in /  0.5 mm
13:47 41.7 °F /  5.4 °C 40.5 °F /  4.7 °C 29.8 in /  1010.4 hPa West 1 mph /  1.6 km/h 7 mph /  11.3 km/h 95 % 0.01 in /  0.3 mm
13:52 41.9 °F /  5.5 °C 40.6 °F /  4.8 °C 29.8 in /  1010.4 hPa WSW 1 mph /  1.6 km/h 7 mph /  11.3 km/h 95 % 0.01 in /  0.3 mm
14:02 41.9 °F /  5.5 °C 40.6 °F /  4.8 °C 29.8 in /  1010.4 hPa SW 4 mph /  6.4 km/h 7 mph /  11.3 km/h 95 % 0.01 in /  0.3 mm
14:17 42.1 °F /  5.6 °C 40.5 °F /  4.7 °C 29.8 in /  1010.0 hPa SW 4 mph /  6.4 km/h 8 mph /  12.9 km/h 94 % 0 in /  0.0 mm
14:22 42.1 °F /  5.6 °C 40.5 °F /  4.7 °C 29.8 in /  1010.0 hPa West 3 mph /  4.8 km/h 8 mph /  12.9 km/h 94 % 0 in /  0.0 mm
14:32 42.3 °F /  5.7 °C 40.6 °F /  4.8 °C 29.8 in /  1010.0 hPa West 2 mph /  3.2 km/h 8 mph /  12.9 km/h 94 % 0 in /  0.0 mm
14:37 42.3 °F /  5.7 °C 40.6 °F /  4.8 °C 29.8 in /  1010.0 hPa West 5 mph /  8.0 km/h 9 mph /  14.5 km/h 94 % 0 in /  0.0 mm
14:42 42.3 °F /  5.7 °C 40.6 °F /  4.8 °C 29.8 in /  1010.0 hPa West 3 mph /  4.8 km/h 9 mph /  14.5 km/h 94 % 0 in /  0.0 mm
14:52 42.3 °F /  5.7 °C 40.6 °F /  4.8 °C 29.8 in /  1009.7 hPa West 3 mph /  4.8 km/h 9 mph /  14.5 km/h 94 % 0 in /  0.0 mm
15:02 42.4 °F /  5.8 °C 40.8 °F /  4.9 °C 29.8 in /  1010.0 hPa West 3 mph /  4.8 km/h 10 mph /  16.1 km/h 94 % 0 in /  0.0 mm
15:07 42.6 °F /  5.9 °C 41 °F /  5.0 °C 29.8 in /  1009.7 hPa West 4 mph /  6.4 km/h 6 mph /  9.7 km/h 94 % 0 in /  0.0 mm
15:12 42.6 °F /  5.9 °C 41 °F /  5.0 °C 29.8 in /  1009.7 hPa WSW 1 mph /  1.6 km/h 6 mph /  9.7 km/h 94 % 0 in /  0.0 mm
15:22 42.8 °F /  6.0 °C 41.2 °F /  5.1 °C 29.8 in /  1009.7 hPa West 3 mph /  4.8 km/h 7 mph /  11.3 km/h 94 % 0 in /  0.0 mm
15:32 42.8 °F /  6.0 °C 41.2 °F /  5.1 °C 29.8 in /  1009.7 hPa WSW 5 mph /  8.0 km/h 7 mph /  11.3 km/h 94 % 0 in /  0.0 mm
15:37 42.8 °F /  6.0 °C 41 °F /  5.0 °C 29.8 in /  1009.7 hPa WSW 5 mph /  8.0 km/h 8 mph /  12.9 km/h 93 % 0 in /  0.0 mm
15:42 42.6 °F /  5.9 °C 40.8 °F /  4.9 °C 29.8 in /  1009.7 hPa SW 3 mph /  4.8 km/h 8 mph /  12.9 km/h 93 % 0 in /  0.0 mm
15:47 42.6 °F /  5.9 °C 40.8 °F /  4.9 °C 29.8 in /  1009.7 hPa SW 3 mph /  4.8 km/h 6 mph /  9.7 km/h 93 % 0 in /  0.0 mm
15:52 42.4 °F /  5.8 °C 40.6 °F /  4.8 °C 29.8 in /  1009.7 hPa Calm   6 mph /  9.7 km/h 93 % 0 in /  0.0 mm
15:57 42.4 °F /  5.8 °C 40.6 °F /  4.8 °C 29.8 in /  1009.7 hPa WSW 1 mph /  1.6 km/h 6 mph /  9.7 km/h 93 % 0 in /  0.0 mm
16:07 42.6 °F /  5.9 °C 41 °F /  5.0 °C 29.8 in /  1009.7 hPa WSW 1 mph /  1.6 km/h 5 mph /  8.0 km/h 94 % 0 in /  0.0 mm
16:17 42.6 °F /  5.9 °C 41 °F /  5.0 °C 29.8 in /  1009.7 hPa Calm   4 mph /  6.4 km/h 94 % 0 in /  0.0 mm
16:22 42.6 °F /  5.9 °C 40.8 °F /  4.9 °C 29.8 in /  1009.7 hPa Calm   4 mph /  6.4 km/h 93 % 0 in /  0.0 mm
16:27 42.8 °F /  6.0 °C 41.2 °F /  5.1 °C 29.8 in /  1009.7 hPa SW 1 mph /  1.6 km/h 2 mph /  3.2 km/h 94 % 0 in /  0.0 mm
16:47 42.1 °F /  5.6 °C 40.3 °F /  4.6 °C 29.8 in /  1009.4 hPa Calm   3 mph /  4.8 km/h 93 % 0 in /  0.0 mm
16:57 41.7 °F /  5.4 °C 40.1 °F /  4.5 °C 29.8 in /  1009.4 hPa WSW 2 mph /  3.2 km/h 3 mph /  4.8 km/h 94 % 0 in /  0.0 mm
17:02 41.5 °F /  5.3 °C 39.9 °F /  4.4 °C 29.8 in /  1009.4 hPa Calm   3 mph /  4.8 km/h 94 % 0 in /  0.0 mm
17:07 41.4 °F /  5.2 °C 39.7 °F /  4.3 °C 29.8 in /  1009.4 hPa West 1 mph /  1.6 km/h 3 mph /  4.8 km/h 94 % 0 in /  0.0 mm
17:17 41.4 °F /  5.2 °C 39.7 °F /  4.3 °C 29.8 in /  1009.4 hPa West 3 mph /  4.8 km/h 8 mph /  12.9 km/h 94 % 0 in /  0.0 mm
17:32 41.4 °F /  5.2 °C 39.7 °F /  4.3 °C 29.8 in /  1009.4 hPa WSW 2 mph /  3.2 km/h 8 mph /  12.9 km/h 94 % 0 in /  0.0 mm
17:37 41.4 °F /  5.2 °C 39.7 °F /  4.3 °C 29.8 in /  1009.7 hPa SW 3 mph /  4.8 km/h 9 mph /  14.5 km/h 94 % 0 in /  0.0 mm
17:42 41.4 °F /  5.2 °C 39.7 °F /  4.3 °C 29.8 in /  1009.4 hPa SW 1 mph /  1.6 km/h 9 mph /  14.5 km/h 94 % 0 in /  0.0 mm
17:52 41.2 °F /  5.1 °C 39.6 °F /  4.2 °C 29.8 in /  1009.4 hPa SW 2 mph /  3.2 km/h 5 mph /  8.0 km/h 94 % 0 in /  0.0 mm
17:57 41.2 °F /  5.1 °C 39.6 °F /  4.2 °C 29.8 in /  1009.4 hPa WSW 6 mph /  9.7 km/h 8 mph /  12.9 km/h 94 % 0 in /  0.0 mm
18:17 41 °F /  5.0 °C 39.7 °F /  4.3 °C 29.8 in /  1009.4 hPa SSW 3 mph /  4.8 km/h 7 mph /  11.3 km/h 95 % 0 in /  0.0 mm
18:22 40.8 °F /  4.9 °C 39.6 °F /  4.2 °C 29.8 in /  1009.4 hPa SW 4 mph /  6.4 km/h 7 mph /  11.3 km/h 95 % 0 in /  0.0 mm
18:27 40.6 °F /  4.8 °C 39.4 °F /  4.1 °C 29.8 in /  1009.4 hPa SSW 4 mph /  6.4 km/h 7 mph /  11.3 km/h 95 % 0 in /  0.0 mm
18:32 40.5 °F /  4.7 °C 39.2 °F /  4.0 °C 29.8 in /  1009.4 hPa SSW 3 mph /  4.8 km/h 7 mph /  11.3 km/h 95 % 0 in /  0.0 mm
18:42 40.5 °F /  4.7 °C 39.2 °F /  4.0 °C 29.8 in /  1009.4 hPa SSW 2 mph /  3.2 km/h 5 mph /  8.0 km/h 95 % 0 in /  0.0 mm
18:47 40.5 °F /  4.7 °C 39.4 °F /  4.1 °C 29.8 in /  1009.4 hPa SW 1 mph /  1.6 km/h 8 mph /  12.9 km/h 96 % 0 in /  0.0 mm
18:52 40.6 °F /  4.8 °C 39.6 °F /  4.2 °C 29.8 in /  1009.4 hPa SW 6 mph /  9.7 km/h 8 mph /  12.9 km/h 96 % 0 in /  0.0 mm
19:02 40.6 °F /  4.8 °C 39.6 °F /  4.2 °C 29.8 in /  1009.4 hPa SSW 5 mph /  8.0 km/h 8 mph /  12.9 km/h 96 % 0 in /  0.0 mm
19:07 40.6 °F /  4.8 °C 39.6 °F /  4.2 °C 29.8 in /  1009.4 hPa SW 2 mph /  3.2 km/h 8 mph /  12.9 km/h 96 % 0 in /  0.0 mm
19:17 40.6 °F /  4.8 °C 39.6 °F /  4.2 °C 29.8 in /  1009.4 hPa SW 3 mph /  4.8 km/h 8 mph /  12.9 km/h 96 % 0 in /  0.0 mm
19:22 40.6 °F /  4.8 °C 39.6 °F /  4.2 °C 29.8 in /  1009.4 hPa SW 5 mph /  8.0 km/h 8 mph /  12.9 km/h 96 % 0 in /  0.0 mm
19:27 40.8 °F /  4.9 °C 39.7 °F /  4.3 °C 29.8 in /  1009.4 hPa SW 3 mph /  4.8 km/h 10 mph /  16.1 km/h 96 % 0 in /  0.0 mm
19:32 40.8 °F /  4.9 °C 39.7 °F /  4.3 °C 29.8 in /  1009.4 hPa SW 3 mph /  4.8 km/h 10 mph /  16.1 km/h 96 % 0 in /  0.0 mm
19:47 40.8 °F /  4.9 °C 39.7 °F /  4.3 °C 29.8 in /  1009.4 hPa SW 4 mph /  6.4 km/h 9 mph /  14.5 km/h 96 % 0 in /  0.0 mm
19:57 40.8 °F /  4.9 °C 39.6 °F /  4.2 °C 29.8 in /  1009.4 hPa WSW 9 mph /  14.5 km/h 11 mph /  17.7 km/h 95 % 0 in /  0.0 mm
20:02 40.8 °F /  4.9 °C 39.6 °F /  4.2 °C 29.8 in /  1009.4 hPa WSW 8 mph /  12.9 km/h 11 mph /  17.7 km/h 95 % 0 in /  0.0 mm
20:07 40.8 °F /  4.9 °C 39.6 °F /  4.2 °C 29.8 in /  1009.4 hPa West 4 mph /  6.4 km/h 11 mph /  17.7 km/h 95 % 0 in /  0.0 mm
20:12 40.8 °F /  4.9 °C 39.6 °F /  4.2 °C 29.8 in /  1009.4 hPa West 3 mph /  4.8 km/h 11 mph /  17.7 km/h 95 % 0 in /  0.0 mm
20:17 40.8 °F /  4.9 °C 39.6 °F /  4.2 °C 29.8 in /  1009.4 hPa West 5 mph /  8.0 km/h 10 mph /  16.1 km/h 95 % 0.01 in /  0.3 mm
20:32 40.8 °F /  4.9 °C 39.6 °F /  4.2 °C 29.8 in /  1009.0 hPa SSW 2 mph /  3.2 km/h 6 mph /  9.7 km/h 95 % 0.01 in /  0.3 mm
20:52 40.5 °F /  4.7 °C 39.2 °F /  4.0 °C 29.8 in /  1009.0 hPa SSW 4 mph /  6.4 km/h 5 mph /  8.0 km/h 95 % 0.01 in /  0.3 mm
20:57 40.5 °F /  4.7 °C 39.2 °F /  4.0 °C 29.8 in /  1009.0 hPa SW 2 mph /  3.2 km/h 7 mph /  11.3 km/h 95 % 0.01 in /  0.3 mm
21:12 40.6 °F /  4.8 °C 39.4 °F /  4.1 °C 29.8 in /  1009.0 hPa WSW 1 mph /  1.6 km/h 7 mph /  11.3 km/h 95 % 0.01 in /  0.3 mm
21:17 40.6 °F /  4.8 °C 39.4 °F /  4.1 °C 29.8 in /  1009.0 hPa Calm   7 mph /  11.3 km/h 95 % 0 in /  0.0 mm
21:22 40.6 °F /  4.8 °C 39.4 °F /  4.1 °C 29.8 in /  1009.0 hPa SW 1 mph /  1.6 km/h 7 mph /  11.3 km/h 95 % 0 in /  0.0 mm
21:32 40.5 °F /  4.7 °C 39.2 °F /  4.0 °C 29.8 in /  1009.0 hPa WSW 2 mph /  3.2 km/h 5 mph /  8.0 km/h 95 % 0 in /  0.0 mm
21:37 40.3 °F /  4.6 °C 39 °F /  3.9 °C 29.8 in /  1009.0 hPa SW 1 mph /  1.6 km/h 5 mph /  8.0 km/h 95 % 0 in /  0.0 mm
21:42 40.3 °F /  4.6 °C 39 °F /  3.9 °C 29.8 in /  1009.0 hPa WSW 1 mph /  1.6 km/h 5 mph /  8.0 km/h 95 % 0 in /  0.0 mm
21:47 40.3 °F /  4.6 °C 39 °F /  3.9 °C 29.8 in /  1009.0 hPa SW 2 mph /  3.2 km/h 4 mph /  6.4 km/h 95 % 0 in /  0.0 mm
21:52 40.3 °F /  4.6 °C 39 °F /  3.9 °C 29.8 in /  1009.0 hPa WSW 3 mph /  4.8 km/h 4 mph /  6.4 km/h 95 % 0 in /  0.0 mm
21:57 40.5 °F /  4.7 °C 39.2 °F /  4.0 °C 29.8 in /  1008.7 hPa West 3 mph /  4.8 km/h 6 mph /  9.7 km/h 95 % 0 in /  0.0 mm
22:02 40.5 °F /  4.7 °C 39.2 °F /  4.0 °C 29.8 in /  1008.7 hPa WSW 1 mph /  1.6 km/h 6 mph /  9.7 km/h 95 % 0 in /  0.0 mm
22:07 40.5 °F /  4.7 °C 39.2 °F /  4.0 °C 29.8 in /  1009.0 hPa WSW 2 mph /  3.2 km/h 6 mph /  9.7 km/h 95 % 0 in /  0.0 mm
22:12 40.5 °F /  4.7 °C 39.2 °F /  4.0 °C 29.8 in /  1009.0 hPa WSW 4 mph /  6.4 km/h 6 mph /  9.7 km/h 95 % 0 in /  0.0 mm
22:17 40.5 °F /  4.7 °C 39.2 °F /  4.0 °C 29.8 in /  1009.0 hPa West 1 mph /  1.6 km/h 4 mph /  6.4 km/h 95 % 0 in /  0.0 mm
22:27 40.5 °F /  4.7 °C 39.2 °F /  4.0 °C 29.8 in /  1009.0 hPa SW 2 mph /  3.2 km/h 4 mph /  6.4 km/h 95 % 0 in /  0.0 mm
22:37 40.5 °F /  4.7 °C 39.2 °F /  4.0 °C 29.8 in /  1009.0 hPa WSW 2 mph /  3.2 km/h 4 mph /  6.4 km/h 95 % 0 in /  0.0 mm
22:42 40.5 °F /  4.7 °C 39.2 °F /  4.0 °C 29.8 in /  1009.0 hPa Calm   4 mph /  6.4 km/h 95 % 0 in /  0.0 mm
22:52 40.5 °F /  4.7 °C 39.2 °F /  4.0 °C 29.8 in /  1009.0 hPa West 1 mph /  1.6 km/h 3 mph /  4.8 km/h 95 % 0 in /  0.0 mm
23:07 40.3 °F /  4.6 °C 39 °F /  3.9 °C 29.8 in /  1009.0 hPa Calm   2 mph /  3.2 km/h 95 % 0 in /  0.0 mm
23:12 40.3 °F /  4.6 °C 39 °F /  3.9 °C 29.8 in /  1009.0 hPa West 2 mph /  3.2 km/h 2 mph /  3.2 km/h 95 % 0 in /  0.0 mm
23:17 40.3 °F /  4.6 °C 39 °F /  3.9 °C 29.8 in /  1009.0 hPa Calm   2 mph /  3.2 km/h 95 % 0 in /  0.0 mm
23:22 40.3 °F /  4.6 °C 39 °F /  3.9 °C 29.8 in /  1009.0 hPa Calm   2 mph /  3.2 km/h 95 % 0 in /  0.0 mm
23:27 40.3 °F /  4.6 °C 39 °F /  3.9 °C 29.8 in /  1009.0 hPa WNW 1 mph /  1.6 km/h 2 mph /  3.2 km/h 95 % 0 in /  0.0 mm
23:32 40.1 °F /  4.5 °C 38.8 °F /  3.8 °C 29.8 in /  1009.0 hPa West 1 mph /  1.6 km/h 2 mph /  3.2 km/h 95 % 0 in /  0.0 mm
23:52 39.9 °F /  4.4 °C 38.3 °F /  3.5 °C 29.8 in /  1009.0 hPa West 1 mph /  1.6 km/h 2 mph /  3.2 km/h 94 % 0 in /  0.0 mm
23:57 39.7 °F /  4.3 °C 38.1 °F /  3.4 °C 29.8 in /  1009.0 hPa WNW 2 mph /  3.2 km/h 3 mph /  4.8 km/h 94 % 0 in /  0.0 mm
Meteo18
Compliments of Weather Underground - 4 mb

Script developed by  Jim McMurry - jmcmurry@mwt.net Adapted for the template by  Wim van der Kuil - Leuven-Template.eu

You find our weather info also at:

European Weather Network

Weather Underground

Equipment we use:

Weather-station
Davis Vue

Weather-program
Meteohub

Weather-server
Raspberry PI 2 B+

Provider
1 and 1

Davis Vue

Meteohub

Raspberry PI 2 B+

1 and 1